createdAt,value
2023-01-04T00:00:49.272Z,101483.94
2023-01-04T00:05:50.732Z,101476.72
2023-01-04T00:10:52.315Z,101460.25
2023-01-04T00:15:53.833Z,101451.31
2023-01-04T00:20:55.254Z,101448.31
2023-01-04T00:25:56.670Z,101455.13
2023-01-04T00:31:02.381Z,101448.56
2023-01-04T00:36:08.806Z,101445.97
2023-01-04T00:41:56.925Z,101444.34
2023-01-04T00:46:33.720Z,101451.09
2023-01-04T00:51:37.106Z,101456.34
2023-01-04T00:56:38.571Z,101451.81
2023-01-04T01:01:41.347Z,101451.00
2023-01-04T01:06:43.288Z,101451.00
2023-01-04T01:11:45.097Z,101457.97
2023-01-04T01:16:57.303Z,101461.69
2023-01-04T01:21:59.463Z,101446.75
2023-01-04T01:27:00.893Z,101448.75
2023-01-04T01:32:02.370Z,101447.97
2023-01-04T01:37:03.906Z,101436.44
2023-01-04T01:42:05.311Z,101429.25
2023-01-04T01:47:21.575Z,101416.09
2023-01-04T01:52:29.575Z,101418.03
2023-01-04T01:57:36.992Z,101404.66
2023-01-04T02:02:44.781Z,101402.78
2023-01-04T02:07:48.058Z,101398.16
2023-01-04T02:12:51.799Z,101400.25
2023-01-04T02:18:10.030Z,101401.09
2023-01-04T02:23:30.146Z,101381.56
2023-01-04T02:28:58.771Z,101377.28
2023-01-04T02:34:08.356Z,101367.47
2023-01-04T02:39:39.170Z,101372.22
2023-01-04T02:44:59.429Z,101356.06
2023-01-04T02:50:19.286Z,101343.59
2023-01-04T02:55:20.933Z,101352.56
2023-01-04T03:00:34.116Z,101351.00
2023-01-04T03:06:15.105Z,101339.63
2023-01-04T03:11:36.981Z,101333.09
2023-01-04T03:16:40.643Z,101321.19
2023-01-04T03:21:45.482Z,101316.91
2023-01-04T03:27:29.166Z,101292.28
2023-01-04T03:33:05.685Z,101293.31
2023-01-04T03:38:48.173Z,101300.56
2023-01-04T03:44:18.894Z,101286.13
2023-01-04T03:50:00.527Z,101280.69
2023-01-04T03:55:05.476Z,101268.53
2023-01-04T04:00:13.660Z,101267.81
2023-01-04T04:05:41.445Z,101257.88
2023-01-04T04:10:42.863Z,101249.78
2023-01-04T04:15:44.336Z,101239.16
2023-01-04T04:20:45.746Z,101233.19
2023-01-04T04:25:47.147Z,101229.78
2023-01-04T04:30:52.131Z,101236.63
2023-01-04T04:35:55.003Z,101237.34
2023-01-04T04:41:15.189Z,101230.06
2023-01-04T04:46:16.738Z,101231.72
2023-01-04T04:51:18.323Z,101220.13
2023-01-04T04:56:19.818Z,101220.94
2023-01-04T05:01:21.704Z,101221.09
2023-01-04T05:06:23.765Z,101202.34
2023-01-04T05:11:43.450Z,101190.13
2023-01-04T05:16:45.439Z,101184.66
2023-01-04T05:21:46.925Z,101182.13
2023-01-04T05:26:48.415Z,101172.97
2023-01-04T05:31:49.953Z,101164.53
2023-01-04T05:36:51.483Z,101171.50
2023-01-04T05:42:11.283Z,101162.72
2023-01-04T05:47:15.157Z,101156.00
2023-01-04T05:52:17.277Z,101162.59
2023-01-04T05:57:19.242Z,101134.16
2023-01-04T06:02:24.807Z,101138.38
2023-01-04T06:07:27.542Z,101133.56
2023-01-04T06:12:29.010Z,101140.72
2023-01-04T06:17:30.452Z,101147.09
2023-01-04T06:22:32.902Z,101127.47
2023-01-04T06:27:34.512Z,101124.00
2023-01-04T06:32:35.985Z,101104.38
2023-01-04T06:37:38.199Z,101091.88
2023-01-04T06:42:45.767Z,101081.41
2023-01-04T06:47:48.194Z,101071.91
2023-01-04T06:52:49.730Z,101070.38
2023-01-04T06:57:55.069Z,101059.41
2023-01-04T07:03:13.540Z,101060.28
2023-01-04T07:08:17.065Z,101055.63
2023-01-04T07:13:18.524Z,101047.22
2023-01-04T07:18:20.096Z,101045.16
2023-01-04T07:23:21.526Z,101025.34
2023-01-04T07:28:41.355Z,101035.81
2023-01-04T07:33:42.826Z,101033.97
2023-01-04T07:38:44.342Z,101032.03
2023-01-04T07:43:46.247Z,101019.66
2023-01-04T07:48:47.729Z,101012.59
2023-01-04T07:53:49.301Z,101022.78
2023-01-04T07:58:50.800Z,101015.03
2023-01-04T08:03:53.226Z,100998.78
2023-01-04T08:08:54.665Z,100997.69
2023-01-04T08:13:56.202Z,100997.06
2023-01-04T08:19:04.372Z,100992.03
2023-01-04T08:24:06.213Z,100982.72
2023-01-04T08:29:07.691Z,100963.16
2023-01-04T08:34:10.290Z,100956.34
2023-01-04T08:39:11.781Z,100942.91
2023-01-04T08:44:13.209Z,100933.31
2023-01-04T08:49:15.487Z,100925.44
2023-01-04T08:54:17.423Z,100916.41
2023-01-04T08:59:18.900Z,100915.78
2023-01-04T09:04:20.483Z,100902.81
2023-01-04T09:09:21.999Z,100893.00
2023-01-04T09:14:23.437Z,100881.84
2023-01-04T09:19:24.966Z,100871.00
2023-01-04T09:24:26.391Z,100847.72
2023-01-04T09:29:27.872Z,100843.28
2023-01-04T09:34:29.325Z,100823.56
2023-01-04T09:39:30.823Z,100828.22
2023-01-04T09:45:21.897Z,100792.31
2023-01-04T09:50:16.618Z,100783.66
2023-01-04T09:55:38.738Z,100772.91
2023-01-04T10:00:49.447Z,100757.69
2023-01-04T10:05:52.843Z,100767.44
2023-01-04T10:10:57.646Z,100742.25
2023-01-04T10:16:05.166Z,100713.81
2023-01-04T10:21:32.854Z,100705.03
2023-01-04T10:26:42.407Z,100682.03
2023-01-04T10:32:05.967Z,100670.78
2023-01-04T10:37:21.077Z,100655.34
2023-01-04T10:42:33.320Z,100642.31
2023-01-04T10:47:34.681Z,100630.03
2023-01-04T10:52:53.851Z,100616.97
2023-01-04T10:58:02.424Z,100611.22
2023-01-04T11:03:13.574Z,100593.63
2023-01-04T11:08:22.017Z,100597.97
2023-01-04T11:13:24.619Z,100593.56
2023-01-04T11:18:26.044Z,100577.06
2023-01-04T11:23:27.520Z,100554.94
2023-01-04T11:28:37.818Z,100551.53
2023-01-04T11:33:56.327Z,100545.31
2023-01-04T11:38:58.400Z,100530.03
2023-01-04T11:44:06.075Z,100500.66
2023-01-04T11:49:19.143Z,100493.94
2023-01-04T11:54:20.681Z,100489.72
2023-01-04T11:59:25.445Z,100476.97
2023-01-04T12:04:29.104Z,100459.59
2023-01-04T12:09:32.124Z,100449.00
2023-01-04T12:14:37.391Z,100428.88
2023-01-04T12:19:41.638Z,100413.13
2023-01-04T12:24:45.480Z,100405.25
2023-01-04T12:30:01.651Z,100396.59
2023-01-04T12:35:03.171Z,100368.06
2023-01-04T12:40:43.042Z,100357.59
2023-01-04T12:45:48.497Z,100352.63
2023-01-04T12:51:34.188Z,100352.94
2023-01-04T12:57:13.313Z,100349.16
2023-01-04T13:02:18.548Z,100352.63
2023-01-04T13:07:32.712Z,100336.50
2023-01-04T13:12:55.913Z,100319.38
2023-01-04T13:17:58.200Z,100317.31
2023-01-04T13:22:59.874Z,100290.09
2023-01-04T13:28:03.664Z,100255.78
2023-01-04T13:33:27.620Z,100257.41
2023-01-04T13:38:31.686Z,100257.72
2023-01-04T13:43:46.564Z,100262.06
2023-01-04T13:48:52.035Z,100280.19
2023-01-04T13:53:56.047Z,100268.91
2023-01-04T13:58:58.020Z,100251.94
2023-01-04T14:04:01.497Z,100266.44
2023-01-04T14:09:13.337Z,100243.56
2023-01-04T14:14:23.687Z,100231.00
2023-01-04T14:19:41.771Z,100224.03
2023-01-04T14:25:08.887Z,100214.28
2023-01-04T14:30:20.366Z,100214.09
2023-01-04T14:35:21.989Z,100205.38
2023-01-04T14:40:28.574Z,100204.19
2023-01-04T14:45:29.985Z,100204.38
2023-01-04T14:50:31.513Z,100194.84
2023-01-04T14:55:33.098Z,100189.94
2023-01-04T15:00:34.532Z,100182.81
2023-01-04T15:05:37.933Z,100174.16
2023-01-04T15:10:39.615Z,100168.78
2023-01-04T15:15:41.765Z,100157.03
2023-01-04T15:20:43.564Z,100140.38
2023-01-04T15:25:45.008Z,100135.81
2023-01-04T15:30:46.433Z,100124.47
2023-01-04T15:35:47.968Z,100123.19
2023-01-04T15:40:50.256Z,100104.63
2023-01-04T15:45:51.666Z,100106.50
2023-01-04T15:50:53.080Z,100091.06
2023-01-04T15:55:54.502Z,100092.78
2023-01-04T16:01:01.239Z,100095.44
2023-01-04T16:06:10.577Z,100077.19
2023-01-04T16:11:15.649Z,100049.56
2023-01-04T16:16:19.147Z,100057.84
2023-01-04T16:21:23.542Z,100048.50
2023-01-04T16:26:24.990Z,100052.50
2023-01-04T16:31:26.508Z,100050.56
2023-01-04T16:36:28.092Z,100048.63
2023-01-04T16:41:29.979Z,100030.97
2023-01-04T16:46:36.059Z,100021.53
2023-01-04T16:51:40.344Z,100001.22
2023-01-04T16:56:43.621Z,100014.53
2023-01-04T17:01:52.681Z,100004.13
2023-01-04T17:06:58.354Z,100001.00
2023-01-04T17:17:24.494Z,99980.22
2023-01-04T17:22:32.347Z,99976.88
2023-01-04T17:27:35.692Z,99956.84
2023-01-04T17:32:37.116Z,99947.84
2023-01-04T17:37:38.528Z,99934.00
2023-01-04T17:42:42.170Z,99941.72
2023-01-04T17:47:43.588Z,99945.56
2023-01-04T17:52:47.520Z,99929.50
2023-01-04T17:57:48.964Z,99905.59
2023-01-04T18:02:50.389Z,99896.88
2023-01-04T18:07:51.801Z,99893.59
2023-01-04T18:12:53.220Z,99886.78
2023-01-04T18:17:54.628Z,99887.19
2023-01-04T18:22:56.031Z,99882.09
2023-01-04T18:27:57.452Z,99877.97
2023-01-04T18:32:58.932Z,99871.84
2023-01-04T18:38:00.658Z,99862.28
2023-01-04T18:43:02.094Z,99854.38
2023-01-04T18:48:03.759Z,99852.25
2023-01-04T18:53:05.246Z,99841.34
2023-01-04T18:58:06.707Z,99844.59
2023-01-04T19:03:10.919Z,99842.19
2023-01-04T19:08:14.806Z,99841.59
2023-01-04T19:13:16.269Z,99831.53
2023-01-04T19:18:17.791Z,99826.44
2023-01-04T19:23:19.750Z,99817.59
2023-01-04T19:28:21.853Z,99804.31
2023-01-04T19:33:23.302Z,99794.50
2023-01-04T19:38:24.755Z,99787.53
2023-01-04T19:43:26.439Z,99786.81
2023-01-04T19:48:27.902Z,99764.78
2023-01-04T19:53:29.392Z,99785.84
2023-01-04T19:58:30.896Z,99766.00
2023-01-04T20:03:32.507Z,99782.28
2023-01-04T20:08:34.517Z,99772.22
2023-01-04T20:13:37.072Z,99771.63
2023-01-04T20:18:38.756Z,99766.47
2023-01-04T20:23:41.230Z,99751.78
2023-01-04T20:28:45.783Z,99764.66
2023-01-04T20:33:47.732Z,99754.97
2023-01-04T20:38:50.044Z,99747.41
2023-01-04T20:43:52.188Z,99738.34
2023-01-04T20:48:54.556Z,99721.94
2023-01-04T20:53:59.706Z,99706.59
2023-01-04T20:59:01.143Z,99703.78
2023-01-04T21:04:02.609Z,99711.88
2023-01-04T21:09:04.048Z,99698.22
2023-01-04T21:14:05.497Z,99707.78
2023-01-04T21:19:07.710Z,99702.06
2023-01-04T21:24:09.143Z,99688.78
2023-01-04T21:29:10.554Z,99690.78
2023-01-04T21:34:15.152Z,99686.59
2023-01-04T21:39:18.541Z,99679.84
2023-01-04T21:44:20.053Z,99675.41
2023-01-04T21:49:21.473Z,99658.75
2023-01-04T21:54:23.722Z,99668.91
2023-01-04T21:59:25.151Z,99656.94
2023-01-04T22:04:26.771Z,99643.34
2023-01-04T22:09:28.601Z,99634.78
2023-01-04T22:14:30.006Z,99623.16
2023-01-04T22:19:31.474Z,99607.13
2023-01-04T22:24:37.722Z,99602.69
2023-01-04T22:29:39.740Z,99583.19
2023-01-04T22:34:41.142Z,99579.38
2023-01-04T22:39:42.562Z,99584.16
2023-01-04T22:44:43.968Z,99576.31
2023-01-04T22:49:45.388Z,99556.34
2023-01-04T22:54:48.471Z,99550.59
2023-01-04T22:59:49.890Z,99551.44
2023-01-04T23:04:51.354Z,99548.91
2023-01-04T23:09:52.990Z,99547.94
2023-01-04T23:14:54.478Z,99543.56
2023-01-04T23:19:55.918Z,99547.44
2023-01-04T23:24:57.432Z,99533.69
2023-01-04T23:29:58.899Z,99521.69
2023-01-04T23:35:00.343Z,99535.94
2023-01-04T23:40:01.894Z,99517.78
2023-01-04T23:45:03.542Z,99514.38
2023-01-04T23:50:05.262Z,99510.63
2023-01-04T23:55:07.076Z,99502.13
